createdAt,value
2023-04-09T00:00:40.589Z,58.05
2023-04-09T00:06:06.437Z,59.58
2023-04-09T00:11:09.260Z,60.75
2023-04-09T00:16:12.856Z,67.60
2023-04-09T00:21:16.588Z,70.69
2023-04-09T00:26:19.380Z,68.00
2023-04-09T00:31:22.302Z,64.87
2023-04-09T00:36:27.084Z,62.17
2023-04-09T00:41:29.941Z,58.65
2023-04-09T00:46:32.946Z,54.52
2023-04-09T00:51:36.157Z,54.44
2023-04-09T00:56:39.162Z,56.96
2023-04-09T01:01:41.991Z,60.47
2023-04-09T01:06:50.912Z,70.40
2023-04-09T01:12:15.103Z,70.75
2023-04-09T01:17:25.796Z,65.93
2023-04-09T01:22:47.066Z,63.10
2023-04-09T01:28:18.508Z,61.30
2023-04-09T01:33:22.840Z,60.16
2023-04-09T01:38:26.627Z,56.67
2023-04-09T01:43:30.949Z,55.97
2023-04-09T01:48:34.523Z,55.26
2023-04-09T01:53:37.361Z,57.23
2023-04-09T01:58:40.960Z,59.47
2023-04-09T02:03:53.996Z,67.14
2023-04-09T02:08:59.967Z,72.28
2023-04-09T02:14:04.583Z,67.49
2023-04-09T02:19:08.525Z,64.57
2023-04-09T02:24:11.336Z,61.40
2023-04-09T02:29:14.039Z,59.19
2023-04-09T02:34:16.709Z,54.14
2023-04-09T02:39:19.365Z,54.70
2023-04-09T02:44:22.790Z,56.46
2023-04-09T02:49:25.555Z,60.12
2023-04-09T02:54:28.358Z,66.66
2023-04-09T02:59:33.105Z,69.12
2023-04-09T03:04:36.018Z,65.75
2023-04-09T03:09:38.734Z,63.74
2023-04-09T03:14:41.514Z,61.90
2023-04-09T03:19:44.714Z,57.94
2023-04-09T03:24:47.524Z,54.07
2023-04-09T03:29:50.320Z,56.40
2023-04-09T03:34:53.033Z,58.84
2023-04-09T03:39:55.845Z,63.75
2023-04-09T03:44:58.943Z,66.21
2023-04-09T03:50:02.193Z,64.37
2023-04-09T03:55:05.930Z,63.04
2023-04-09T04:00:09.743Z,62.97
2023-04-09T04:05:12.494Z,61.35
2023-04-09T04:10:15.562Z,56.72
2023-04-09T04:15:20.268Z,55.49
2023-04-09T04:20:23.650Z,58.06
2023-04-09T04:25:26.772Z,65.78
2023-04-09T04:30:29.519Z,68.87
2023-04-09T04:35:32.409Z,66.23
2023-04-09T04:40:35.483Z,63.13
2023-04-09T04:45:38.796Z,62.16
2023-04-09T04:50:41.632Z,61.15
2023-04-09T04:55:44.334Z,58.96
2023-04-09T05:00:47.383Z,54.53
2023-04-09T05:05:50.104Z,57.18
2023-04-09T05:10:56.229Z,60.18
2023-04-09T05:15:59.007Z,64.57
2023-04-09T05:21:01.783Z,66.97
2023-04-09T05:26:04.516Z,64.65
2023-04-09T05:31:13.241Z,63.09
2023-04-09T05:36:17.602Z,59.87
2023-04-09T05:41:20.462Z,55.30
2023-04-09T05:46:23.144Z,56.88
2023-04-09T05:51:25.905Z,60.27
2023-04-09T05:56:29.190Z,64.78
2023-04-09T06:01:32.117Z,63.42
2023-04-09T06:06:34.836Z,59.52
2023-04-09T06:11:38.430Z,57.81
2023-04-09T06:16:41.358Z,61.88
2023-04-09T06:21:44.233Z,65.60
2023-04-09T06:26:47.258Z,63.71
2023-04-09T06:31:50.543Z,62.07
2023-04-09T06:36:53.202Z,60.17
2023-04-09T06:41:55.953Z,55.92
2023-04-09T06:46:58.692Z,56.22
2023-04-09T06:52:01.414Z,59.95
2023-04-09T06:57:04.137Z,64.56
2023-04-09T07:02:08.639Z,64.55
2023-04-09T07:07:12.849Z,58.01
2023-04-09T07:12:25.955Z,57.38
2023-04-09T07:17:29.169Z,60.67
2023-04-09T07:22:31.953Z,65.54
2023-04-09T07:27:36.101Z,64.61
2023-04-09T07:32:39.271Z,60.97
2023-04-09T07:37:42.035Z,55.52
2023-04-09T07:42:44.796Z,55.67
2023-04-09T07:47:47.723Z,60.38
2023-04-09T07:52:50.518Z,64.27
2023-04-09T07:57:53.466Z,61.94
2023-04-09T08:02:58.202Z,56.78
2023-04-09T08:08:01.080Z,59.37
2023-04-09T08:13:03.772Z,62.06
2023-04-09T08:18:06.543Z,64.31
2023-04-09T08:23:09.280Z,60.10
2023-04-09T08:28:12.056Z,55.14
2023-04-09T08:33:14.829Z,59.31
2023-04-09T08:38:19.240Z,62.67
2023-04-09T08:43:25.116Z,61.50
2023-04-09T08:48:37.252Z,54.86
2023-04-09T08:53:43.491Z,56.53
2023-04-09T08:58:46.981Z,59.02
2023-04-09T09:04:09.871Z,61.30
2023-04-09T09:09:14.731Z,62.34
2023-04-09T09:14:19.604Z,61.06
2023-04-09T09:19:25.452Z,56.60
2023-04-09T09:24:28.636Z,58.01
2023-04-09T09:29:31.996Z,58.91
2023-04-09T09:36:37.395Z,60.11
2023-04-09T09:41:44.169Z,60.30
2023-04-09T09:46:46.967Z,60.30
2023-04-09T09:51:50.976Z,61.62
2023-04-09T09:56:58.246Z,59.76
2023-04-09T10:02:05.975Z,56.44
2023-04-09T10:07:09.324Z,55.00
2023-04-09T10:12:12.480Z,54.45
2023-04-09T10:17:16.367Z,54.40
2023-04-09T10:22:23.291Z,53.88
2023-04-09T10:27:29.837Z,52.01
2023-04-09T10:32:36.320Z,51.52
2023-04-09T10:37:39.371Z,52.01
2023-04-09T10:42:43.404Z,52.81
2023-04-09T10:47:51.661Z,53.15
2023-04-09T10:53:00.772Z,53.66
2023-04-09T10:58:05.808Z,54.17
2023-04-09T11:03:30.626Z,54.63
2023-04-09T11:08:34.226Z,54.68
2023-04-09T11:13:38.211Z,54.76
2023-04-09T11:18:41.312Z,55.50
2023-04-09T11:23:51.833Z,56.30
2023-04-09T11:28:58.148Z,53.90
2023-04-09T11:34:01.056Z,48.86
2023-04-09T11:39:04.878Z,47.35
2023-04-09T11:44:11.162Z,43.61
2023-04-09T11:49:14.067Z,42.70
2023-04-09T11:54:17.572Z,42.03
2023-04-09T11:59:20.413Z,41.37
2023-04-09T12:04:23.558Z,40.70
2023-04-09T12:09:26.937Z,39.79
2023-04-09T12:14:29.706Z,37.67
2023-04-09T12:19:32.397Z,35.53
2023-04-09T12:24:35.528Z,32.85
2023-04-09T12:29:38.199Z,32.55
2023-04-09T12:34:41.538Z,33.11
2023-04-09T12:39:44.338Z,34.07
2023-04-09T12:44:47.445Z,34.18
2023-04-09T12:49:50.381Z,34.66
2023-04-09T12:54:53.260Z,34.54
2023-04-09T12:59:56.338Z,34.16
2023-04-09T13:04:59.053Z,33.52
2023-04-09T13:10:02.182Z,32.15
2023-04-09T13:15:05.805Z,31.42
2023-04-09T13:20:09.557Z,30.07
2023-04-09T13:25:13.751Z,28.62
2023-04-09T13:30:17.695Z,27.41
2023-04-09T13:35:20.481Z,27.38
2023-04-09T13:40:23.289Z,26.62
2023-04-09T13:45:26.292Z,25.90
2023-04-09T13:50:29.297Z,25.75
2023-04-09T13:55:32.101Z,25.00
2023-04-09T14:00:36.158Z,24.26
2023-04-09T14:05:39.044Z,24.18
2023-04-09T14:10:42.170Z,24.27
2023-04-09T14:15:46.440Z,24.28
2023-04-09T14:20:49.386Z,24.54
2023-04-09T14:25:54.008Z,24.94
2023-04-09T14:30:56.870Z,26.24
2023-04-09T14:35:59.932Z,28.81
2023-04-09T14:41:02.860Z,30.94
2023-04-09T14:46:07.223Z,32.41
2023-04-09T14:51:10.952Z,33.30
2023-04-09T14:56:14.034Z,34.72
2023-04-09T15:01:16.932Z,35.46
2023-04-09T15:06:19.830Z,36.24
2023-04-09T15:11:23.176Z,37.73
2023-04-09T15:16:27.974Z,39.14
2023-04-09T15:21:31.828Z,39.09
2023-04-09T15:26:35.668Z,39.15
2023-04-09T15:31:40.854Z,39.26
2023-04-09T15:36:46.193Z,39.23
2023-04-09T15:41:48.969Z,38.94
2023-04-09T15:46:51.697Z,38.68
2023-04-09T15:51:54.420Z,39.11
2023-04-09T15:56:57.168Z,39.95
2023-04-09T16:02:00.000Z,41.12
2023-04-09T16:07:04.600Z,42.99
2023-04-09T16:12:07.307Z,45.36
2023-04-09T16:17:10.347Z,47.18
2023-04-09T16:22:13.469Z,49.16
2023-04-09T16:27:16.948Z,49.86
2023-04-09T16:32:19.776Z,51.15
2023-04-09T16:37:22.554Z,51.71
2023-04-09T16:42:27.446Z,52.65
2023-04-09T16:47:31.899Z,52.92
2023-04-09T16:52:35.565Z,53.80
2023-04-09T16:57:38.514Z,54.92
2023-04-09T17:02:41.323Z,55.00
2023-04-09T17:07:44.788Z,55.83
2023-04-09T17:12:48.770Z,56.54
2023-04-09T17:17:53.424Z,56.81
2023-04-09T17:22:56.887Z,57.74
2023-04-09T17:28:01.688Z,58.01
2023-04-09T17:33:04.572Z,58.67
2023-04-09T17:38:07.515Z,59.31
2023-04-09T17:43:10.358Z,59.36
2023-04-09T17:48:13.139Z,59.60
2023-04-09T17:53:15.846Z,59.87
2023-04-09T17:58:18.846Z,60.20
2023-04-09T18:03:22.058Z,60.74
2023-04-09T18:08:25.271Z,61.29
2023-04-09T18:13:28.586Z,62.98
2023-04-09T18:18:31.240Z,58.16
2023-04-09T18:23:34.207Z,56.88
2023-04-09T18:28:37.000Z,57.85
2023-04-09T18:33:39.726Z,58.26
2023-04-09T18:38:42.496Z,58.67
2023-04-09T18:43:45.291Z,59.40
2023-04-09T18:48:48.299Z,60.35
2023-04-09T18:53:53.895Z,64.51
2023-04-09T18:58:56.870Z,67.97
2023-04-09T19:03:59.911Z,63.84
2023-04-09T19:09:04.672Z,56.12
2023-04-09T19:14:07.634Z,53.42
2023-04-09T19:19:11.486Z,54.58
2023-04-09T19:24:14.261Z,57.25
2023-04-09T19:29:16.964Z,58.40
2023-04-09T19:34:19.661Z,59.80
2023-04-09T19:39:22.434Z,59.85
2023-04-09T19:44:25.487Z,60.61
2023-04-09T19:49:28.782Z,60.68
2023-04-09T19:54:31.990Z,68.11
2023-04-09T19:59:37.480Z,68.43
2023-04-09T20:04:40.713Z,63.20
2023-04-09T20:09:43.787Z,56.92
2023-04-09T20:14:47.305Z,54.22
2023-04-09T20:19:50.074Z,53.97
2023-04-09T20:24:52.906Z,56.37
2023-04-09T20:29:56.284Z,57.78
2023-04-09T20:34:59.076Z,59.57
2023-04-09T20:40:02.031Z,59.84
2023-04-09T20:45:06.060Z,67.07
2023-04-09T20:50:09.651Z,67.47
2023-04-09T20:55:12.753Z,63.54
2023-04-09T21:00:15.893Z,60.94
2023-04-09T21:05:23.955Z,55.15
2023-04-09T21:10:27.433Z,53.36
2023-04-09T21:15:30.538Z,54.02
2023-04-09T21:20:33.850Z,56.52
2023-04-09T21:25:36.518Z,58.33
2023-04-09T21:30:39.595Z,59.64
2023-04-09T21:35:42.362Z,66.52
2023-04-09T21:40:48.090Z,69.56
2023-04-09T21:45:50.846Z,64.40
2023-04-09T21:50:53.944Z,60.89
2023-04-09T21:55:56.855Z,54.61
2023-04-09T22:00:59.580Z,53.69
2023-04-09T22:06:02.380Z,55.19
2023-04-09T22:11:05.812Z,58.03
2023-04-09T22:16:09.107Z,58.84
2023-04-09T22:21:18.132Z,60.67
2023-04-09T22:26:22.174Z,67.07
2023-04-09T22:31:27.457Z,70.20
2023-04-09T22:36:31.870Z,65.75
2023-04-09T22:41:34.538Z,61.78
2023-04-09T22:46:37.286Z,55.05
2023-04-09T22:51:41.712Z,53.01
2023-04-09T22:56:45.336Z,53.83
2023-04-09T23:01:48.191Z,56.60
2023-04-09T23:06:51.472Z,58.79
2023-04-09T23:11:54.229Z,60.75
2023-04-09T23:16:58.000Z,65.06
2023-04-09T23:22:00.998Z,67.02
2023-04-09T23:27:03.869Z,58.27
2023-04-09T23:32:07.197Z,56.15
2023-04-09T23:37:10.441Z,58.35
2023-04-09T23:42:13.359Z,59.07
2023-04-09T23:47:16.605Z,61.32
2023-04-09T23:52:19.419Z,68.93
2023-04-09T23:57:22.286Z,69.40
